Time;durP1;ratioP1;P1;durP2;ratioP2;P2;SDS_P1;SDS_P2;PMS_P1;PMS_P2;Temp;Humidity;BMP_temperature;BMP_pressure;BME280_temperature;BME280_humidity;BME280_pressure;Samples;Min_cycle;Max_cycle;Signal;HPM_P1;HPM_P2
2022/02/28 00:00:22;;;;;;;;;;;;;;;;;;;;;
2022/02/28 00:03:51;;;;;;;5.00;2.80;;;;;;;17.63;32.40;101676.76;99335;1374;61499;-83
2022/02/28 00:07:10;;;;;;;5.80;2.50;;;;;;;17.63;32.46;101680.30;99252;1374;61576;-83
2022/02/28 00:10:24;;;;;;;4.30;2.70;;;;;;;17.63;32.51;101678.17;99016;1380;74172;-78
2022/02/28 00:13:22;;;;;;;4.10;2.20;;;;;;;17.62;32.49;101675.36;98545;1385;73849;-82
2022/02/28 00:16:56;;;;;;;4.20;2.50;;;;;;;17.62;32.47;101674.65;98516;1387;61383;-80
2022/02/28 00:19:45;;;;;;;4.40;2.10;;;;;;;17.62;32.46;101670.73;98911;1380;61294;-83
2022/02/28 00:23:02;;;;;;;;;;;;;;;;;;;;;
2022/02/28 00:26:13;;;;;;;3.70;2.30;;;;;;;17.62;32.57;101677.50;98661;1386;74832;-84
2022/02/28 00:29:02;;;;;;;5.00;2.30;;;;;;;17.62;32.42;101676.81;98693;1384;61489;-82
2022/02/28 00:31:57;;;;;;;4.50;2.10;;;;;;;17.62;32.45;101672.36;98700;1384;61211;-84
2022/02/28 00:35:08;;;;;;;4.30;2.20;;;;;;;17.61;32.51;101672.39;98858;1379;73444;-82
2022/02/28 00:38:17;;;;;;;4.80;2.50;;;;;;;17.61;32.47;101676.31;99111;1374;76514;-78
2022/02/28 00:41:14;;;;;;;5.30;2.80;;;;;;;17.61;32.45;101672.77;98969;1377;61235;-82
2022/02/28 00:44:40;;;;;;;4.50;2.50;;;;;;;17.60;32.47;101672.05;99090;1376;61257;-87
2022/02/28 00:47:52;;;;;;;;;;;;;;;;;;;;;
2022/02/28 00:51:14;;;;;;;5.20;2.50;;;;;;;17.59;32.50;101671.20;99373;1370;73742;-84
2022/02/28 00:54:34;;;;;;;4.10;2.30;;;;;;;17.59;32.57;101662.83;99736;1367;61419;-82
2022/02/28 00:57:17;;;;;;;5.00;2.40;;;;;;;17.59;32.47;101658.20;99996;1361;60717;-81
2022/02/28 01:00:35;;;;;;;;;;;;;;;;;;;;;
2022/02/28 01:03:32;;;;;;;4.40;2.20;;;;;;;17.58;32.56;101660.39;100235;1361;76177;-82
2022/02/28 01:06:58;;;;;;;;;;;;;;;;;;;;;
2022/02/28 01:10:07;;;;;;;4.00;2.20;;;;;;;17.57;32.47;101647.79;100491;1361;61349;-82
2022/02/28 01:13:26;;;;;;;;;;;;;;;;;;;;;
2022/02/28 01:16:34;;;;;;;;;;;;;;;;;;;;;
2022/02/28 01:19:58;;;;;;;4.80;2.30;;;;;;;17.56;32.50;101661.71;100307;1361;61290;-86
2022/02/28 01:22:44;;;;;;;4.50;2.40;;;;;;;17.56;32.50;101654.95;100246;1359;61482;-85
2022/02/28 01:25:49;;;;;;;5.10;2.60;;;;;;;17.57;32.50;101655.27;100631;1357;74078;-83
2022/02/28 01:29:13;;;;;;;3.80;2.10;;;;;;;17.56;32.49;101654.05;100523;1358;75941;-83
2022/02/28 01:32:20;;;;;;;;;;;;;;;;;;;;;
2022/02/28 01:34:47;;;;;;;3.90;2.40;;;;;;;17.56;32.41;101647.15;100143;1364;62317;-82
2022/02/28 01:38:10;;;;;;;3.90;2.20;;;;;;;17.56;32.47;101647.13;100239;1363;73048;-82
2022/02/28 01:41:18;;;;;;;4.20;2.00;;;;;;;17.55;32.47;101645.76;100182;1361;76006;-83
2022/02/28 01:44:28;;;;;;;3.60;2.30;;;;;;;17.55;32.59;101648.80;99529;1370;62154;-85
2022/02/28 01:47:24;;;;;;;4.50;2.40;;;;;;;17.55;32.63;101647.02;99651;1367;61390;-85
2022/02/28 01:50:49;;;;;;;3.70;2.30;;;;;;;17.54;32.52;101642.23;99566;1363;71974;-84
2022/02/28 01:53:58;;;;;;;4.00;2.00;;;;;;;17.54;32.56;101644.19;100101;1364;74071;-82
2022/02/28 01:57:16;;;;;;;3.90;2.20;;;;;;;17.54;32.65;101638.69;99983;1367;62897;-83
2022/02/28 02:00:06;;;;;;;5.30;2.30;;;;;;;17.54;32.56;101636.38;99845;1366;61495;-78
2022/02/28 02:03:28;;;;;;;;;;;;;;;;;;;;;
2022/02/28 02:07:05;;;;;;;4.50;2.30;;;;;;;17.52;32.49;101635.01;99976;1366;73830;-83
2022/02/28 02:10:43;;;;;;;4.60;2.20;;;;;;;17.52;32.53;101629.67;100193;1364;62006;-83
2022/02/28 02:13:30;;;;;;;4.60;2.40;;;;;;;17.52;32.41;101632.36;100521;1357;61858;-82
2022/02/28 02:16:36;;;;;;;4.50;2.20;;;;;;;17.52;32.42;101631.81;100252;1362;73840;-82
2022/02/28 02:19:27;;;;;;;4.70;2.50;;;;;;;17.52;32.52;101625.94;100076;1365;74995;-84
2022/02/28 02:22:57;;;;;;;;;;;;;;;;;;;;;
2022/02/28 02:26:13;;;;;;;4.10;2.40;;;;;;;17.52;32.52;101621.14;100518;1358;61974;-81
2022/02/28 02:29:39;;;;;;;4.40;2.20;;;;;;;17.52;32.45;101617.95;100730;1357;70523;-82
2022/02/28 02:33:00;;;;;;;;;;;;;;;;;;;;;
2022/02/28 02:36:08;;;;;;;3.50;2.20;;;;;;;17.51;32.37;101614.60;101384;1352;61513;-82
2022/02/28 02:39:06;;;;;;;4.90;2.50;;;;;;;17.51;32.53;101618.88;101371;1352;61267;-84
2022/02/28 02:42:12;;;;;;;4.20;2.20;;;;;;;17.51;32.44;101611.21;101072;1353;73371;-78
2022/02/28 02:45:17;;;;;;;3.60;2.30;;;;;;;17.51;32.38;101615.48;101390;1352;74905;-87
2022/02/28 02:48:49;;;;;;;;;;;;;;;;;;;;;
2022/02/28 02:51:53;;;;;;;;;;;;;;;;;;;;;
2022/02/28 02:55:09;;;;;;;3.80;2.20;;;;;;;17.50;32.48;101610.73;100542;1358;73937;-80
2022/02/28 02:58:13;;;;;;;;;;;;;;;;;;;;;
2022/02/28 03:01:34;;;;;;;4.50;2.20;;;;;;;17.50;32.43;101606.45;100693;1358;61399;-83
2022/02/28 03:04:52;;;;;;;4.30;2.10;;;;;;;17.49;32.44;101607.56;100253;1363;61287;-86
2022/02/28 03:07:46;;;;;;;4.40;2.20;;;;;;;17.49;32.43;101602.75;100662;1357;72921;-82
2022/02/28 03:11:03;;;;;;;;;;;;;;;;;;;;;
2022/02/28 03:14:38;;;;;;;4.30;2.30;;;;;;;17.48;32.49;101593.38;100506;1358;61440;-86
2022/02/28 03:17:26;;;;;;;3.60;2.00;;;;;;;17.49;32.38;101590.67;100315;1361;61272;-83
2022/02/28 03:20:26;;;;;;;3.90;2.10;;;;;;;17.48;32.48;101589.80;100251;1362;73801;-84
2022/02/28 03:23:33;;;;;;;;;;;;;;;;;;;;;
2022/02/28 03:26:48;;;;;;;;;;;;;;;;;;;;;
2022/02/28 03:30:05;;;;;;;;;;;;;;;;;;;;;
2022/02/28 03:33:55;;;;;;;4.10;2.10;;;;;;;17.48;32.42;101572.75;100789;1355;71621;-84
2022/02/28 03:37:22;;;;;;;3.80;2.20;;;;;;;17.47;32.46;101567.64;100407;1361;73686;-82
2022/02/28 03:40:17;;;;;;;;;;;;;;;;;;;;;
2022/02/28 03:43:34;;;;;;;4.30;2.20;;;;;;;17.47;32.33;101571.89;101019;1353;61292;-83
2022/02/28 03:46:51;;;;;;;3.60;2.10;;;;;;;17.47;32.48;101576.52;100395;1361;72998;-82
2022/02/28 03:50:27;;;;;;;3.40;2.00;;;;;;;17.47;32.43;101575.30;101090;1354;77102;-83
2022/02/28 03:57:15;;;;;;;3.40;1.90;;;;;;;17.46;32.39;101578.70;100612;1354;61406;-82
2022/02/28 04:00:34;;;;;;;;;;;;;;;;;;;;;
2022/02/28 04:03:26;;;;;;;3.10;1.50;;;;;;;17.45;32.32;101578.73;100673;1359;75242;-81
2022/02/28 04:07:03;;;;;;;;;;;;;;;;;;;;;
2022/02/28 04:10:18;;;;;;;4.50;2.00;;;;;;;17.44;32.38;101573.23;99794;1367;61631;-86
2022/02/28 04:13:49;;;;;;;4.70;2.10;;;;;;;17.45;32.36;101572.72;99835;1367;73894;-80
2022/02/28 04:17:00;;;;;;;;;;;;;;;;;;;;;
2022/02/28 04:20:10;;;;;;;;;;;;;;;;;;;;;
2022/02/28 04:23:31;;;;;;;4.30;2.00;;;;;;;17.44;32.44;101584.14;100121;1361;62112;-83
2022/02/28 04:26:46;;;;;;;3.00;1.90;;;;;;;17.44;32.26;101583.08;100016;1365;72989;-79
2022/02/28 04:29:46;;;;;;;;;;;;;;;;;;;;;
2022/02/28 04:33:17;;;;;;;3.60;2.30;;;;;;;17.42;32.35;101581.68;99444;1374;62085;-82
2022/02/28 04:39:41;;;;;;;4.30;1.90;;;;;;;17.42;32.37;101579.74;100328;1356;73200;-85
2022/02/28 04:43:39;;;;;;;4.10;1.90;;;;;;;17.42;32.38;101579.92;101029;1354;74962;-81
2022/02/28 04:46:51;;;;;;;;;;;;;;;;;;;;;
2022/02/28 04:50:01;;;;;;;8.10;2.00;;;;;;;17.42;32.38;101582.08;100800;1357;61539;-87
2022/02/28 04:53:11;;;;;;;5.20;2.80;;;;;;;17.41;32.22;101583.16;100714;1357;72814;-79
2022/02/28 04:56:30;;;;;;;4.40;2.20;;;;;;;17.41;32.50;101584.59;100155;1362;73743;-82
2022/02/28 04:59:57;;;;;;;5.40;2.20;;;;;;;17.40;32.39;101584.09;99770;1367;62210;-82
2022/02/28 05:06:26;;;;;;;6.90;2.30;;;;;;;17.40;32.47;101587.14;100164;1365;74079;-80
2022/02/28 05:09:57;;;;;;;4.80;2.20;;;;;;;17.38;32.45;101586.68;100175;1359;72750;-84
2022/02/28 05:12:48;;;;;;;;;;;;;;;;;;;;;
2022/02/28 05:16:30;;;;;;;4.90;2.40;;;;;;;17.37;32.70;101600.95;101017;1354;61618;-85
2022/02/28 05:18:54;;;;;;;5.20;2.40;;;;;;;17.37;32.52;101604.35;100769;1354;73802;-81
2022/02/28 05:22:06;;;;;;;;;;;;;;;;;;;;;
2022/02/28 05:25:31;;;;;;;;;;;;;;;;;;;;;
2022/02/28 05:28:47;;;;;;;5.80;2.10;;;;;;;17.41;32.15;101609.86;100147;1362;61422;-82
2022/02/28 05:31:54;;;;;;;4.60;2.20;;;;;;;17.43;31.90;101607.64;99549;1371;72866;-83
2022/02/28 05:34:40;;;;;;;5.10;2.50;;;;;;;17.45;31.93;101610.25;99414;1370;76026;-81
2022/02/28 05:37:26;;;;;;;6.00;3.00;;;;;;;17.46;31.65;101606.84;99758;1361;61733;-81
2022/02/28 05:40:15;;;;;;;;;;;;;;;;;;;;;
2022/02/28 05:43:26;;;;;;;6.10;2.60;;;;;;;17.41;31.22;101612.17;100002;1363;73032;-81
2022/02/28 05:46:11;;;;;;;;;;;;;;;;;;;;;
2022/02/28 05:48:58;;;;;;;6.40;2.50;;;;;;;17.38;30.95;101616.92;99911;1362;61710;-80
2022/02/28 05:51:37;;;;;;;;;;;;;;;;;;;;;
2022/02/28 05:54:31;;;;;;;;;;;;;;;;;;;;;
2022/02/28 05:56:57;;;;;;;5.80;3.10;;;;;;;17.29;30.33;101615.17;99632;1361;74004;-80
2022/02/28 05:59:23;;;;;;;6.50;3.20;;;;;;;17.25;30.27;101616.92;100193;1352;61254;-79
2022/02/28 06:01:48;;;;;;;5.10;2.60;;;;;;;17.02;30.00;101619.69;100536;1352;61307;-79
2022/02/28 06:04:23;;;;;;;5.10;2.90;;;;;;;16.83;29.92;101617.75;100621;1345;61459;-79
2022/02/28 06:06:49;;;;;;;10.80;3.00;;;;;;;16.81;30.01;101618.02;101006;1345;74112;-79
2022/02/28 06:09:18;;;;;;;7.10;2.60;;;;;;;16.87;29.96;101620.80;101615;1334;61323;-79
2022/02/28 06:11:52;;;;;;;6.70;2.90;;;;;;;16.95;29.92;101618.91;102076;1326;61194;-78
2022/02/28 06:14:18;;;;;;;6.10;2.40;;;;;;;17.03;29.97;101617.52;102396;1325;73012;-81
2022/02/28 06:16:44;;;;;;;5.30;2.40;;;;;;;17.10;29.84;101617.41;102248;1326;61637;-79
2022/02/28 06:19:30;;;;;;;4.90;2.60;;;;;;;17.19;29.86;101615.23;102478;1325;61175;-79
2022/02/28 06:21:57;;;;;;;6.60;2.40;;;;;;;17.27;29.70;101618.13;102351;1325;61542;-79
2022/02/28 06:24:25;;;;;;;7.10;2.40;;;;;;;17.35;29.59;101624.70;103474;1325;72688;-79
2022/02/28 06:26:51;;;;;;;8.50;2.50;;;;;;;17.43;29.75;101624.89;103534;1324;59571;-79
2022/02/28 06:29:17;;;;;;;9.70;2.40;;;;;;;17.51;29.79;101621.72;103495;1325;59617;-79
2022/02/28 06:31:44;;;;;;;5.40;2.60;;;;;;;17.58;29.70;101626.91;103149;1325;59655;-79
2022/02/28 06:34:13;;;;;;;5.60;2.10;;;;;;;17.66;29.94;101623.39;102561;1324;61205;-80
2022/02/28 06:36:39;;;;;;;7.60;2.60;;;;;;;17.74;29.88;101624.66;102370;1325;75695;-79
2022/02/28 06:39:04;;;;;;;4.60;2.20;;;;;;;17.79;29.89;101625.14;103540;1325;59664;-79
2022/02/28 06:41:30;;;;;;;5.60;2.60;;;;;;;17.84;30.15;101622.80;103636;1325;59786;-79
2022/02/28 06:43:56;;;;;;;6.50;2.40;;;;;;;17.89;30.18;101627.74;102480;1325;61231;-78
2022/02/28 06:46:22;;;;;;;7.30;2.70;;;;;;;17.94;30.19;101628.96;102128;1326;303214;-79
2022/02/28 06:48:48;;;;;;;8.40;2.40;;;;;;;17.98;30.44;101632.71;102309;1326;60939;-79
2022/02/28 06:51:16;;;;;;;8.10;2.60;;;;;;;18.02;30.53;101636.80;102326;1325;61217;-79
2022/02/28 06:53:42;;;;;;;13.60;2.90;;;;;;;18.06;30.54;101642.67;102178;1326;61409;-79
2022/02/28 06:56:15;;;;;;;13.90;3.10;;;;;;;18.10;30.75;101636.80;102267;1325;76269;-79
2022/02/28 06:58:42;;;;;;;9.50;3.10;;;;;;;17.99;30.52;101647.80;102408;1326;60547;-79
2022/02/28 07:01:09;;;;;;;7.40;2.20;;;;;;;17.87;30.58;101648.28;102300;1326;61257;-79
2022/02/28 07:03:35;;;;;;;11.00;2.70;;;;;;;17.87;30.71;101651.48;102423;1325;71941;-80
2022/02/28 07:06:01;;;;;;;9.20;2.90;;;;;;;17.89;30.95;101656.02;102716;1325;61290;-78
2022/02/28 07:08:27;;;;;;;12.50;3.00;;;;;;;17.92;30.89;101664.83;102370;1325;62015;-79
2022/02/28 07:10:52;;;;;;;15.90;2.90;;;;;;;17.97;31.06;101673.19;102354;1326;61470;-78
2022/02/28 07:13:19;;;;;;;7.70;2.70;;;;;;;18.00;31.07;101682.48;102326;1326;61307;-79
2022/02/28 07:15:46;;;;;;;13.00;2.50;;;;;;;18.03;31.08;101681.80;102511;1325;61512;-82
2022/02/28 07:18:13;;;;;;;11.50;2.70;;;;;;;18.06;31.28;101685.23;102325;1325;75236;-80
2022/02/28 07:20:39;;;;;;;13.20;2.80;;;;;;;18.07;31.23;101691.41;102381;1326;61543;-81
2022/02/28 07:23:21;;;;;;;10.00;2.80;;;;;;;18.07;31.35;101696.41;102544;1321;61318;-79
2022/02/28 07:25:46;;;;;;;9.20;2.90;;;;;;;18.07;31.53;101696.95;103182;1317;73568;-79
2022/02/28 07:28:15;;;;;;;9.10;2.80;;;;;;;18.06;31.57;101689.50;102916;1319;75824;-79
2022/02/28 07:30:46;;;;;;;11.50;2.80;;;;;;;18.06;31.44;101691.64;103019;1320;61420;-80
2022/02/28 07:33:21;;;;;;;9.00;3.10;;;;;;;18.07;31.53;101687.67;102874;1319;60516;-80
2022/02/28 07:35:49;;;;;;;7.30;2.80;;;;;;;18.09;31.54;101692.79;103114;1317;72610;-83
2022/02/28 07:38:15;;;;;;;11.80;3.00;;;;;;;18.09;31.71;101693.63;103051;1317;74673;-79
2022/02/28 07:41:01;;;;;;;7.80;2.50;;;;;;;18.10;31.67;101696.30;103242;1319;61450;-79
2022/02/28 07:43:26;;;;;;;9.00;3.00;;;;;;;18.11;31.83;101694.29;104298;1317;60174;-79
2022/02/28 07:45:54;;;;;;;8.00;2.70;;;;;;;18.12;31.87;101697.28;103907;1319;59694;-80
2022/02/28 07:48:40;;;;;;;7.20;3.00;;;;;;;18.13;31.92;101697.95;102977;1319;74809;-79
2022/02/28 07:51:06;;;;;;;9.40;2.80;;;;;;;18.15;31.86;101701.94;102973;1319;61182;-78
2022/02/28 07:53:32;;;;;;;7.40;2.50;;;;;;;18.17;31.93;101703.84;102921;1318;61364;-80
2022/02/28 07:55:57;;;;;;;10.70;3.10;;;;;;;18.16;31.86;101705.45;102899;1319;61415;-79
2022/02/28 07:58:23;;;;;;;10.70;2.70;;;;;;;18.10;31.94;101700.92;103148;1319;59680;-79
2022/02/28 08:00:53;;;;;;;;;;;;;;;17.96;31.95;101704.93;103135;1319;61241;-80
2022/02/28 08:03:39;;;;;;;11.40;3.30;;;;;;;17.88;32.13;101704.15;102271;1326;60165;-80
2022/02/28 08:06:04;;;;;;;9.10;3.50;;;;;;;17.86;32.14;101710.15;102490;1326;61345;-80
2022/02/28 08:08:36;;;;;;;7.10;3.20;;;;;;;17.81;32.23;101707.33;102348;1325;61270;-81
2022/02/28 08:11:24;;;;;;;8.80;3.20;;;;;;;17.79;32.27;101712.94;102401;1325;61986;-79
2022/02/28 08:13:58;;;;;;;7.10;3.10;;;;;;;17.78;32.16;101715.48;102022;1331;61199;-80
2022/02/28 08:16:36;;;;;;;5.40;2.80;;;;;;;17.74;32.07;101716.52;101996;1332;72975;-80
2022/02/28 08:19:04;;;;;;;9.80;3.70;;;;;;;17.72;32.01;101722.46;101970;1332;75750;-82
2022/02/28 08:21:30;;;;;;;7.50;2.90;;;;;;;17.68;31.77;101713.59;102121;1332;61344;-79
2022/02/28 08:23:56;;;;;;;9.10;3.40;;;;;;;17.65;31.63;101715.48;102481;1323;61396;-78
2022/02/28 08:26:33;;;;;;;8.40;2.90;;;;;;;17.67;31.74;101716.09;102538;1323;61562;-81
2022/02/28 08:28:58;;;;;;;9.60;3.40;;;;;;;17.71;31.67;101719.86;103615;1323;76549;-80
2022/02/28 08:31:24;;;;;;;5.60;3.00;;;;;;;17.75;31.54;101720.92;103446;1323;59365;-80
2022/02/28 08:33:50;;;;;;;7.20;3.10;;;;;;;17.81;31.71;101723.71;102657;1322;61363;-79
2022/02/28 08:36:19;;;;;;;7.10;3.00;;;;;;;17.85;31.63;101718.53;102391;1321;61158;-79
2022/02/28 08:38:45;;;;;;;;;;;;;;;17.89;31.75;101717.12;102561;1323;75109;-79
2022/02/28 08:41:24;;;;;;;7.50;2.90;;;;;;;17.91;31.68;101725.42;103033;1317;61857;-78
2022/02/28 08:43:58;;;;;;;9.20;2.90;;;;;;;17.96;31.70;101726.63;103070;1317;61430;-79
2022/02/28 08:46:24;;;;;;;13.30;3.00;;;;;;;18.00;31.89;101723.27;103217;1317;73166;-80
2022/02/28 08:48:50;;;;;;;8.40;2.60;;;;;;;18.03;31.94;101724.21;103269;1317;61423;-79
2022/02/28 08:51:15;;;;;;;9.10;3.00;;;;;;;18.07;32.09;101723.69;103515;1309;61323;-80
2022/02/28 08:53:42;;;;;;;8.30;3.40;;;;;;;18.06;32.02;101725.34;104244;1309;61320;-79
2022/02/28 08:56:09;;;;;;;7.90;3.30;;;;;;;17.82;31.76;101723.11;104080;1309;61251;-79
2022/02/28 08:58:35;;;;;;;11.00;3.70;;;;;;;17.58;31.73;101725.70;104856;1307;59297;-80
2022/02/28 09:01:01;;;;;;;14.10;2.90;;;;;;;17.43;32.04;101727.75;104808;1308;59422;-79
2022/02/28 09:03:26;;;;;;;12.20;3.50;;;;;;;17.41;32.19;101721.98;104893;1309;59619;-80
2022/02/28 09:05:52;;;;;;;11.50;3.30;;;;;;;17.42;32.27;101724.61;104837;1309;59842;-79
2022/02/28 09:08:17;;;;;;;6.70;3.10;;;;;;;17.43;32.34;101728.83;104960;1307;73921;-79
2022/02/28 09:10:43;;;;;;;12.30;3.30;;;;;;;17.46;32.40;101732.29;105042;1306;59501;-79
2022/02/28 09:13:09;;;;;;;9.30;3.10;;;;;;;17.48;32.31;101735.41;104152;1309;61497;-80
2022/02/28 09:15:36;;;;;;;15.20;3.20;;;;;;;17.50;32.21;101734.80;104077;1307;61476;-80
2022/02/28 09:18:14;;;;;;;;;;;;;;;;;;;;;
2022/02/28 09:20:40;;;;;;;8.10;2.80;;;;;;;17.59;32.22;101745.25;104984;1309;73728;-78
2022/02/28 09:23:06;;;;;;;8.00;3.20;;;;;;;17.64;32.20;101746.30;104623;1306;61275;-79
2022/02/28 09:25:31;;;;;;;7.40;3.20;;;;;;;17.67;32.23;101748.33;103662;1309;61317;-79
2022/02/28 09:28:00;;;;;;;9.60;2.80;;;;;;;17.70;32.17;101747.84;103742;1308;72707;-78
2022/02/28 09:30:28;;;;;;;7.20;2.60;;;;;;;17.73;32.12;101748.95;103915;1308;61287;-79
2022/02/28 09:32:54;;;;;;;7.20;2.90;;;;;;;17.75;32.10;101744.08;104068;1306;64969;-80
2022/02/28 09:35:24;;;;;;;7.60;2.90;;;;;;;17.76;32.07;101739.92;103933;1308;61333;-80
2022/02/28 09:37:52;;;;;;;8.10;3.00;;;;;;;17.79;32.11;101740.02;104003;1308;74356;-81
2022/02/28 09:40:18;;;;;;;9.80;2.90;;;;;;;17.81;32.17;101734.20;104212;1307;74869;-79
2022/02/28 09:42:47;;;;;;;7.90;3.10;;;;;;;17.84;32.30;101735.48;103990;1309;61400;-80
2022/02/28 09:45:25;;;;;;;9.30;3.30;;;;;;;17.88;32.57;101739.77;103978;1309;61381;-81
2022/02/28 09:47:51;;;;;;;8.50;2.80;;;;;;;17.87;32.78;101738.21;104073;1307;75494;-81
2022/02/28 09:50:17;;;;;;;10.70;3.10;;;;;;;17.88;32.91;101741.02;103999;1311;61366;-80
2022/02/28 09:52:43;;;;;;;11.10;3.40;;;;;;;17.83;32.95;101743.55;103995;1307;60123;-80
2022/02/28 09:55:14;;;;;;;8.00;3.50;;;;;;;17.63;32.91;101747.08;104201;1309;59751;-79
2022/02/28 09:57:47;;;;;;;8.00;4.10;;;;;;;17.51;32.83;101739.70;103912;1309;73217;-80
2022/02/28 10:00:18;;;;;;;15.00;4.20;;;;;;;17.36;32.77;101742.10;105070;1307;74892;-81
2022/02/28 10:02:44;;;;;;;8.80;3.70;;;;;;;17.29;33.02;101741.52;104911;1309;60553;-82
2022/02/28 10:05:10;;;;;;;13.10;3.80;;;;;;;17.27;33.14;101743.54;105001;1308;59531;-81
2022/02/28 10:07:46;;;;;;;12.60;3.80;;;;;;;17.29;33.29;101740.83;104854;1308;60543;-81
2022/02/28 10:10:12;;;;;;;9.50;3.50;;;;;;;17.33;33.34;101737.43;104985;1307;76258;-81
2022/02/28 10:12:38;;;;;;;9.80;3.40;;;;;;;17.38;33.37;101733.47;104537;1314;59293;-81
2022/02/28 10:15:06;;;;;;;10.70;4.10;;;;;;;17.45;33.25;101731.05;104587;1314;60998;-81
2022/02/28 10:17:55;;;;;;;10.00;3.10;;;;;;;17.53;33.30;101727.18;104697;1313;73906;-81
2022/02/28 10:20:30;;;;;;;8.00;3.30;;;;;;;17.61;33.31;101728.64;104695;1311;75865;-81
2022/02/28 10:23:09;;;;;;;12.00;3.20;;;;;;;17.67;33.31;101731.21;104665;1311;60553;-82
2022/02/28 10:25:51;;;;;;;14.70;3.10;;;;;;;17.72;33.40;101729.08;104711;1313;60883;-83
2022/02/28 10:28:22;;;;;;;9.60;3.50;;;;;;;17.78;33.48;101729.56;103964;1313;72816;-81
2022/02/28 10:30:55;;;;;;;10.60;3.30;;;;;;;17.83;33.56;101729.14;103969;1313;74849;-80
2022/02/28 10:33:26;;;;;;;11.10;3.70;;;;;;;17.86;33.53;101725.41;104093;1313;61351;-82
2022/02/28 10:36:27;;;;;;;9.60;3.40;;;;;;;17.90;33.64;101723.83;103815;1314;61217;-80
2022/02/28 10:38:54;;;;;;;12.80;3.00;;;;;;;17.94;33.66;101732.61;102964;1321;74194;-80
2022/02/28 10:41:31;;;;;;;10.80;3.20;;;;;;;17.97;33.81;101730.52;102752;1321;74703;-80
2022/02/28 10:43:58;;;;;;;9.80;3.00;;;;;;;17.99;33.99;101732.40;103562;1317;60208;-79
2022/02/28 10:46:36;;;;;;;9.70;3.70;;;;;;;18.01;34.10;101733.36;104238;1317;60707;-80
2022/02/28 10:49:07;;;;;;;17.70;3.40;;;;;;;18.03;34.20;101736.15;103287;1317;72861;-80
2022/02/28 10:51:51;;;;;;;6.40;3.40;;;;;;;18.04;34.41;101737.50;103067;1319;77016;-82
2022/02/28 10:54:28;;;;;;;13.90;4.60;;;;;;;18.02;34.32;101738.49;103127;1317;61710;-80
2022/02/28 10:57:18;;;;;;;6.70;4.00;;;;;;;17.50;33.37;101738.88;104034;1316;60499;-80
2022/02/28 10:59:55;;;;;;;12.30;4.10;;;;;;;16.82;33.62;101732.98;103481;1322;73319;-80
2022/02/28 11:02:24;;;;;;;9.50;3.50;;;;;;;16.74;33.92;101735.08;103618;1322;75137;-79
2022/02/28 11:05:13;;;;;;;10.40;3.50;;;;;;;16.84;34.19;101728.80;103506;1323;60565;-79
2022/02/28 11:07:43;;;;;;;7.50;3.50;;;;;;;16.99;34.20;101732.88;103669;1323;61699;-81
2022/02/28 11:10:09;;;;;;;11.50;3.80;;;;;;;17.12;34.26;101729.03;103546;1322;73810;-80
2022/02/28 11:12:35;;;;;;;11.50;4.00;;;;;;;17.22;34.30;101729.31;103339;1321;76229;-80
2022/02/28 11:15:04;;;;;;;8.30;3.20;;;;;;;17.34;34.29;101732.23;102547;1320;59774;-80
2022/02/28 11:17:34;;;;;;;23.20;4.00;;;;;;;17.45;34.60;101731.08;103199;1317;62702;-82
2022/02/28 11:20:06;;;;;;;15.60;3.90;;;;;;;17.55;34.68;101730.83;104138;1316;73721;-80
2022/02/28 11:22:31;;;;;;;18.70;3.40;;;;;;;17.62;34.78;101733.91;103376;1317;76832;-80
2022/02/28 11:25:06;;;;;;;16.20;4.00;;;;;;;17.68;34.95;101728.69;103385;1317;60071;-81
2022/02/28 11:27:32;;;;;;;14.70;3.40;;;;;;;17.73;35.00;101734.00;103525;1316;61312;-79
2022/02/28 11:30:09;;;;;;;16.00;3.30;;;;;;;17.77;35.15;101728.31;103097;1317;72831;-80
2022/02/28 11:32:35;;;;;;;14.30;3.70;;;;;;;17.84;35.21;101728.55;103531;1317;74852;-80
2022/02/28 11:35:40;;;;;;;15.90;3.80;;;;;;;17.89;35.34;101728.52;103301;1317;60210;-79
2022/02/28 11:38:32;;;;;;;11.20;3.60;;;;;;;17.92;35.48;101728.58;104579;1308;61491;-81
2022/02/28 11:41:00;;;;;;;14.80;2.90;;;;;;;17.96;35.58;101727.34;105020;1307;73908;-79
2022/02/28 11:43:34;;;;;;;13.90;3.60;;;;;;;17.98;35.58;101723.89;104322;1309;74989;-79
2022/02/28 11:46:17;;;;;;;11.60;3.70;;;;;;;18.01;35.53;101728.39;104203;1308;61429;-79
2022/02/28 11:48:46;;;;;;;11.40;3.40;;;;;;;18.03;35.51;101734.02;103940;1309;61247;-78
2022/02/28 11:51:42;;;;;;;8.10;3.20;;;;;;;18.02;35.34;101734.60;103680;1309;72680;-79
2022/02/28 11:54:37;;;;;;;13.00;4.30;;;;;;;17.81;34.87;101731.34;104566;1309;75100;-78
2022/02/28 11:57:04;;;;;;;11.10;3.50;;;;;;;17.54;34.80;101728.05;104490;1315;61478;-79
2022/02/28 11:59:31;;;;;;;10.70;3.90;;;;;;;17.52;34.85;101726.52;104608;1314;60358;-80
2022/02/28 12:02:04;;;;;;;8.30;3.60;;;;;;;17.52;34.80;101721.70;104555;1314;59686;-80
2022/02/28 12:04:37;;;;;;;10.50;3.30;;;;;;;17.46;34.72;101725.15;104745;1314;74865;-78
2022/02/28 12:07:26;;;;;;;10.30;3.60;;;;;;;17.45;34.77;101722.89;104457;1314;59568;-79
2022/02/28 12:10:03;;;;;;;11.10;3.20;;;;;;;17.50;34.74;101725.87;104478;1313;62524;-79
2022/02/28 12:12:33;;;;;;;6.50;2.90;;;;;;;17.57;34.77;101724.89;104248;1314;74282;-79
2022/02/28 12:15:02;;;;;;;7.00;3.10;;;;;;;17.64;34.74;101729.77;104159;1315;75789;-78
2022/02/28 12:17:55;;;;;;;9.80;3.00;;;;;;;17.65;34.77;101732.04;104596;1314;59473;-79
2022/02/28 12:20:26;;;;;;;11.50;3.40;;;;;;;17.72;34.82;101734.76;104100;1319;60412;-79
2022/02/28 12:23:12;;;;;;;12.80;3.30;;;;;;;17.78;34.86;101728.65;103990;1320;74181;-79
2022/02/28 12:25:41;;;;;;;7.80;2.90;;;;;;;17.85;34.86;101729.60;103492;1326;75916;-78
2022/02/28 12:28:20;;;;;;;10.60;3.10;;;;;;;17.90;34.96;101722.23;102774;1326;61431;-79
2022/02/28 12:30:59;;;;;;;10.10;3.30;;;;;;;17.97;35.08;101725.22;102444;1326;61242;-79
2022/02/28 12:33:46;;;;;;;;;;;;;;;17.99;34.98;101724.36;102544;1323;73876;-80
2022/02/28 12:36:29;;;;;;;7.10;3.20;;;;;;;17.96;34.86;101724.52;102676;1322;75852;-79
2022/02/28 12:39:12;;;;;;;9.90;3.30;;;;;;;17.94;34.87;101723.36;102496;1322;61360;-81
2022/02/28 12:41:48;;;;;;;9.20;3.00;;;;;;;17.92;34.79;101721.63;102498;1323;61279;-80
2022/02/28 12:44:16;;;;;;;7.50;3.20;;;;;;;17.84;34.74;101720.00;102302;1322;73010;-80
2022/02/28 12:46:47;;;;;;;10.10;3.50;;;;;;;17.73;34.63;101724.55;103749;1323;74841;-80
2022/02/28 12:49:14;;;;;;;8.10;3.40;;;;;;;17.67;34.63;101714.84;103490;1323;60500;-80
2022/02/28 12:51:41;;;;;;;9.00;3.40;;;;;;;17.67;34.64;101713.95;103753;1323;60636;-80
2022/02/28 12:54:20;;;;;;;9.60;3.20;;;;;;;17.70;34.54;101711.00;103624;1323;59552;-80
2022/02/28 12:56:54;;;;;;;9.70;2.80;;;;;;;17.72;34.42;101709.27;103795;1314;75864;-79
2022/02/28 12:59:19;;;;;;;7.40;3.20;;;;;;;17.75;34.38;101709.86;104550;1314;60315;-79
2022/02/28 13:01:45;;;;;;;12.00;3.50;;;;;;;17.79;34.33;101711.69;104391;1315;59596;-80
2022/02/28 13:04:11;;;;;;;12.00;3.50;;;;;;;17.83;34.25;101711.32;105110;1308;58848;-79
2022/02/28 13:06:40;;;;;;;13.90;3.10;;;;;;;17.88;34.23;101711.14;105168;1308;59426;-79
2022/02/28 13:09:10;;;;;;;16.10;3.00;;;;;;;17.92;34.00;101708.45;104664;1307;61719;-79
2022/02/28 13:11:47;;;;;;;9.10;2.90;;;;;;;17.96;33.87;101705.27;104206;1309;61373;-80
2022/02/28 13:14:14;;;;;;;7.10;2.80;;;;;;;18.00;33.67;101706.17;105147;1308;72938;-79
2022/02/28 13:16:46;;;;;;;8.10;2.90;;;;;;;18.03;33.40;101719.23;105076;1309;75898;-79
2022/02/28 13:19:21;;;;;;;7.70;2.70;;;;;;;18.05;33.26;101707.38;104962;1308;60409;-80
2022/02/28 13:21:51;;;;;;;10.10;3.00;;;;;;;18.08;33.35;101710.98;104389;1308;61426;-80
2022/02/28 13:24:22;;;;;;;13.70;3.00;;;;;;;18.11;33.36;101699.80;104166;1308;72807;-80
2022/02/28 13:27:00;;;;;;;12.30;3.10;;;;;;;18.16;33.90;101698.34;104108;1308;75601;-80
2022/02/28 13:29:49;;;;;;;18.00;3.30;;;;;;;18.20;34.36;101696.20;104171;1308;61381;-80
2022/02/28 13:32:40;;;;;;;24.80;3.50;;;;;;;18.22;34.90;101698.23;104156;1309;61537;-80
2022/02/28 13:35:24;;;;;;;12.60;3.20;;;;;;;18.26;35.28;101704.29;104109;1309;73021;-83
2022/02/28 13:38:08;;;;;;;19.70;3.50;;;;;;;18.29;35.39;101708.64;104054;1309;75649;-81
2022/02/28 13:40:44;;;;;;;11.40;2.90;;;;;;;18.30;35.87;101706.28;104096;1309;61138;-81